sensor_id;sensor_type;location;lat;lon;timestamp;temperature;humidity
13496;DHT22;6820;49.374;8.452;2022-07-10T00:00:26;19.68;99.99
13496;DHT22;6820;49.374;8.452;2022-07-10T00:04:28;19.62;99.99
13496;DHT22;6820;49.374;8.452;2022-07-10T00:08:29;19.52;99.99
13496;DHT22;6820;49.374;8.452;2022-07-10T00:12:31;19.50;99.99
13496;DHT22;6820;49.374;8.452;2022-07-10T00:16:33;19.32;99.99
13496;DHT22;6820;49.374;8.452;2022-07-10T00:20:35;19.31;99.99
13496;DHT22;6820;49.374;8.452;2022-07-10T00:24:37;19.27;99.99
13496;DHT22;6820;49.374;8.452;2022-07-10T00:28:39;19.21;99.99
13496;DHT22;6820;49.374;8.452;2022-07-10T00:32:41;19.23;99.99
13496;DHT22;6820;49.374;8.452;2022-07-10T00:36:43;19.13;99.99
13496;DHT22;6820;49.374;8.452;2022-07-10T00:40:44;19.07;99.99
13496;DHT22;6820;49.374;8.452;2022-07-10T00:44:46;18.99;99.99
13496;DHT22;6820;49.374;8.452;2022-07-10T00:48:48;18.91;99.99
13496;DHT22;6820;49.374;8.452;2022-07-10T00:52:50;18.87;99.99
13496;DHT22;6820;49.374;8.452;2022-07-10T00:56:52;18.84;99.99
13496;DHT22;6820;49.374;8.452;2022-07-10T01:00:53;18.78;99.99
13496;DHT22;6820;49.374;8.452;2022-07-10T01:04:58;18.69;99.99
13496;DHT22;6820;49.374;8.452;2022-07-10T01:09:00;18.68;99.99
13496;DHT22;6820;49.374;8.452;2022-07-10T01:13:02;18.65;99.99
13496;DHT22;6820;49.374;8.452;2022-07-10T01:17:04;18.64;99.99
13496;DHT22;6820;49.374;8.452;2022-07-10T01:21:22;18.56;99.99
13496;DHT22;6820;49.374;8.452;2022-07-10T01:25:25;18.54;99.99
13496;DHT22;6820;49.374;8.452;2022-07-10T01:29:26;18.49;99.99
13496;DHT22;6820;49.374;8.452;2022-07-10T01:33:28;18.44;99.99
13496;DHT22;6820;49.374;8.452;2022-07-10T01:37:29;18.32;99.99
13496;DHT22;6820;49.374;8.452;2022-07-10T01:41:31;18.34;99.99
13496;DHT22;6820;49.374;8.452;2022-07-10T01:45:33;18.35;99.99
13496;DHT22;6820;49.374;8.452;2022-07-10T01:49:35;18.38;99.99
13496;DHT22;6820;49.374;8.452;2022-07-10T01:53:39;18.39;99.99
13496;DHT22;6820;49.374;8.452;2022-07-10T01:57:41;18.44;99.99
13496;DHT22;6820;49.374;8.452;2022-07-10T02:01:43;18.41;99.99
13496;DHT22;6820;49.374;8.452;2022-07-10T02:05:44;18.41;99.99
13496;DHT22;6820;49.374;8.452;2022-07-10T02:09:46;18.42;99.99
13496;DHT22;6820;49.374;8.452;2022-07-10T02:13:48;18.39;99.99
13496;DHT22;6820;49.374;8.452;2022-07-10T02:17:49;18.39;99.99
13496;DHT22;6820;49.374;8.452;2022-07-10T02:21:51;18.38;99.99
13496;DHT22;6820;49.374;8.452;2022-07-10T02:25:53;18.36;99.99
13496;DHT22;6820;49.374;8.452;2022-07-10T02:29:54;18.38;99.99
13496;DHT22;6820;49.374;8.452;2022-07-10T02:33:56;18.35;99.99
13496;DHT22;6820;49.374;8.452;2022-07-10T02:37:58;18.35;99.99
13496;DHT22;6820;49.374;8.452;2022-07-10T02:41:59;18.31;99.99
13496;DHT22;6820;49.374;8.452;2022-07-10T02:46:01;18.35;99.99
13496;DHT22;6820;49.374;8.452;2022-07-10T02:50:03;18.35;99.99
13496;DHT22;6820;49.374;8.452;2022-07-10T02:54:05;18.32;99.99
13496;DHT22;6820;49.374;8.452;2022-07-10T02:58:08;18.32;99.99
13496;DHT22;6820;49.374;8.452;2022-07-10T03:02:10;18.31;99.99
13496;DHT22;6820;49.374;8.452;2022-07-10T03:06:12;18.29;99.99
13496;DHT22;6820;49.374;8.452;2022-07-10T03:10:14;18.28;99.99
13496;DHT22;6820;49.374;8.452;2022-07-10T03:14:15;18.23;99.99
13496;DHT22;6820;49.374;8.452;2022-07-10T03:18:18;18.16;99.99
13496;DHT22;6820;49.374;8.452;2022-07-10T03:22:20;18.13;99.99
13496;DHT22;6820;49.374;8.452;2022-07-10T03:26:22;18.14;99.99
13496;DHT22;6820;49.374;8.452;2022-07-10T03:30:23;18.04;99.99
13496;DHT22;6820;49.374;8.452;2022-07-10T03:34:25;17.98;99.99
13496;DHT22;6820;49.374;8.452;2022-07-10T03:38:27;17.96;99.99
13496;DHT22;6820;49.374;8.452;2022-07-10T03:42:28;17.96;99.99
13496;DHT22;6820;49.374;8.452;2022-07-10T03:46:30;17.94;99.99
13496;DHT22;6820;49.374;8.452;2022-07-10T03:50:32;17.87;99.99
13496;DHT22;6820;49.374;8.452;2022-07-10T03:54:35;17.80;99.99
13496;DHT22;6820;49.374;8.452;2022-07-10T03:58:37;17.76;99.99
13496;DHT22;6820;49.374;8.452;2022-07-10T04:02:39;17.77;99.99
13496;DHT22;6820;49.374;8.452;2022-07-10T04:06:41;17.80;99.99
13496;DHT22;6820;49.374;8.452;2022-07-10T04:10:43;17.74;99.99
13496;DHT22;6820;49.374;8.452;2022-07-10T04:14:44;17.65;99.99
13496;DHT22;6820;49.374;8.452;2022-07-10T04:18:46;17.63;99.99
13496;DHT22;6820;49.374;8.452;2022-07-10T04:22:48;17.57;99.99
13496;DHT22;6820;49.374;8.452;2022-07-10T04:26:50;17.49;99.99
13496;DHT22;6820;49.374;8.452;2022-07-10T04:30:52;17.53;99.99
13496;DHT22;6820;49.374;8.452;2022-07-10T04:34:54;17.49;99.99
13496;DHT22;6820;49.374;8.452;2022-07-10T04:38:56;17.51;99.99
13496;DHT22;6820;49.374;8.452;2022-07-10T04:42:58;17.47;99.99
13496;DHT22;6820;49.374;8.452;2022-07-10T04:47:00;17.45;99.99
13496;DHT22;6820;49.374;8.452;2022-07-10T04:51:02;17.45;99.99
13496;DHT22;6820;49.374;8.452;2022-07-10T04:55:03;17.38;99.99
13496;DHT22;6820;49.374;8.452;2022-07-10T04:59:05;17.35;99.99
13496;DHT22;6820;49.374;8.452;2022-07-10T05:03:07;17.33;99.99
13496;DHT22;6820;49.374;8.452;2022-07-10T05:07:09;17.25;99.99
13496;DHT22;6820;49.374;8.452;2022-07-10T05:11:10;17.27;99.99
13496;DHT22;6820;49.374;8.452;2022-07-10T05:15:12;17.21;99.99
13496;DHT22;6820;49.374;8.452;2022-07-10T05:19:14;17.20;99.99
13496;DHT22;6820;49.374;8.452;2022-07-10T05:23:15;17.22;99.99
13496;DHT22;6820;49.374;8.452;2022-07-10T05:27:17;17.27;99.99
13496;DHT22;6820;49.374;8.452;2022-07-10T05:31:21;17.38;99.99
13496;DHT22;6820;49.374;8.452;2022-07-10T05:35:23;17.32;99.99
13496;DHT22;6820;49.374;8.452;2022-07-10T05:39:25;17.28;99.99
13496;DHT22;6820;49.374;8.452;2022-07-10T05:43:27;17.24;99.99
13496;DHT22;6820;49.374;8.452;2022-07-10T05:47:29;17.25;99.99
13496;DHT22;6820;49.374;8.452;2022-07-10T05:51:31;17.27;99.99
13496;DHT22;6820;49.374;8.452;2022-07-10T05:55:46;17.28;99.99
13496;DHT22;6820;49.374;8.452;2022-07-10T05:59:49;17.21;99.99
13496;DHT22;6820;49.374;8.452;2022-07-10T06:03:51;17.18;99.99
13496;DHT22;6820;49.374;8.452;2022-07-10T06:07:53;17.25;99.99
13496;DHT22;6820;49.374;8.452;2022-07-10T06:11:55;17.38;99.99
13496;DHT22;6820;49.374;8.452;2022-07-10T06:15:56;17.58;99.99
13496;DHT22;6820;49.374;8.452;2022-07-10T06:19:58;17.80;99.99
13496;DHT22;6820;49.374;8.452;2022-07-10T06:24:00;18.01;99.99
13496;DHT22;6820;49.374;8.452;2022-07-10T06:28:02;18.13;99.99
13496;DHT22;6820;49.374;8.452;2022-07-10T06:32:04;18.16;99.99
13496;DHT22;6820;49.374;8.452;2022-07-10T06:36:06;18.21;99.99
13496;DHT22;6820;49.374;8.452;2022-07-10T06:40:09;18.14;99.99
13496;DHT22;6820;49.374;8.452;2022-07-10T06:44:14;18.25;99.99
13496;DHT22;6820;49.374;8.452;2022-07-10T06:48:16;18.42;99.99
13496;DHT22;6820;49.374;8.452;2022-07-10T06:52:18;18.60;99.99
13496;DHT22;6820;49.374;8.452;2022-07-10T06:56:20;18.65;98.94
13496;DHT22;6820;49.374;8.452;2022-07-10T07:00:21;18.76;99.15
13496;DHT22;6820;49.374;8.452;2022-07-10T07:04:23;18.87;97.99
13496;DHT22;6820;49.374;8.452;2022-07-10T07:08:25;18.99;97.59
13496;DHT22;6820;49.374;8.452;2022-07-10T07:12:26;19.16;96.64
13496;DHT22;6820;49.374;8.452;2022-07-10T07:16:28;19.23;95.73
13496;DHT22;6820;49.374;8.452;2022-07-10T07:20:40;19.46;94.59
13496;DHT22;6820;49.374;8.452;2022-07-10T07:25:00;19.46;92.83
13496;DHT22;6820;49.374;8.452;2022-07-10T07:29:02;19.68;92.93
13496;DHT22;6820;49.374;8.452;2022-07-10T07:33:04;19.79;92.49
13496;DHT22;6820;49.374;8.452;2022-07-10T07:37:05;19.87;93.39
13496;DHT22;6820;49.374;8.452;2022-07-10T07:41:07;19.82;91.94
13496;DHT22;6820;49.374;8.452;2022-07-10T07:45:10;19.71;90.88
13496;DHT22;6820;49.374;8.452;2022-07-10T07:49:12;19.62;90.68
13496;DHT22;6820;49.374;8.452;2022-07-10T07:53:13;19.67;91.13
13496;DHT22;6820;49.374;8.452;2022-07-10T07:57:15;19.82;91.68
13496;DHT22;6820;49.374;8.452;2022-07-10T08:01:17;19.92;90.28
13496;DHT22;6820;49.374;8.452;2022-07-10T08:05:21;19.94;88.12
13496;DHT22;6820;49.374;8.452;2022-07-10T08:09:24;19.95;88.02
13496;DHT22;6820;49.374;8.452;2022-07-10T08:13:26;19.89;87.93
13496;DHT22;6820;49.374;8.452;2022-07-10T08:17:28;20.01;87.32
13496;DHT22;6820;49.374;8.452;2022-07-10T08:21:29;19.86;87.02
13496;DHT22;6820;49.374;8.452;2022-07-10T08:25:31;19.46;86.76
13496;DHT22;6820;49.374;8.452;2022-07-10T08:29:34;19.21;86.80
13496;DHT22;6820;49.374;8.452;2022-07-10T08:33:35;19.01;87.65
13496;DHT22;6820;49.374;8.452;2022-07-10T08:37:41;19.17;88.19
13496;DHT22;6820;49.374;8.452;2022-07-10T08:41:43;19.39;86.94
13496;DHT22;6820;49.374;8.452;2022-07-10T08:45:47;19.46;86.44
13496;DHT22;6820;49.374;8.452;2022-07-10T08:49:50;19.62;85.80
13496;DHT22;6820;49.374;8.452;2022-07-10T08:53:52;19.80;85.60
13496;DHT22;6820;49.374;8.452;2022-07-10T08:57:56;20.13;85.36
13496;DHT22;6820;49.374;8.452;2022-07-10T09:02:00;19.90;85.68
13496;DHT22;6820;49.374;8.452;2022-07-10T09:06:02;19.97;84.51
13496;DHT22;6820;49.374;8.452;2022-07-10T09:10:06;19.86;84.11
13496;DHT22;6820;49.374;8.452;2022-07-10T09:14:16;19.80;83.65
13496;DHT22;6820;49.374;8.452;2022-07-10T09:18:33;19.78;84.55
13496;DHT22;6820;49.374;8.452;2022-07-10T09:22:35;19.72;85.05
13496;DHT22;6820;49.374;8.452;2022-07-10T09:26:37;19.89;84.55
13496;DHT22;6820;49.374;8.452;2022-07-10T09:30:40;20.13;84.31
13496;DHT22;6820;49.374;8.452;2022-07-10T09:34:52;20.53;85.38
13496;DHT22;6820;49.374;8.452;2022-07-10T09:39:12;20.94;84.83
13496;DHT22;6820;49.374;8.452;2022-07-10T09:43:14;20.98;83.55
13496;DHT22;6820;49.374;8.452;2022-07-10T09:47:22;20.76;81.65
13496;DHT22;6820;49.374;8.452;2022-07-10T09:51:24;20.63;82.18
13496;DHT22;6820;49.374;8.452;2022-07-10T09:55:27;20.82;81.88
13496;DHT22;6820;49.374;8.452;2022-07-10T09:59:31;21.08;81.24
13496;DHT22;6820;49.374;8.452;2022-07-10T10:03:36;21.37;81.41
13496;DHT22;6820;49.374;8.452;2022-07-10T10:07:39;21.85;81.17
13496;DHT22;6820;49.374;8.452;2022-07-10T10:11:41;21.99;80.59
13496;DHT22;6820;49.374;8.452;2022-07-10T10:15:45;21.59;79.89
13496;DHT22;6820;49.374;8.452;2022-07-10T10:19:49;21.31;80.73
13496;DHT22;6820;49.374;8.452;2022-07-10T10:24:10;21.24;80.36
13496;DHT22;6820;49.374;8.452;2022-07-10T10:28:13;21.24;80.11
13496;DHT22;6820;49.374;8.452;2022-07-10T10:32:16;21.45;80.91
13496;DHT22;6820;49.374;8.452;2022-07-10T10:40:42;21.48;80.36
13496;DHT22;6820;49.374;8.452;2022-07-10T10:44:44;21.67;78.97
13496;DHT22;6820;49.374;8.452;2022-07-10T10:49:03;21.74;78.53
13496;DHT22;6820;49.374;8.452;2022-07-10T10:53:12;22.08;79.53
13496;DHT22;6820;49.374;8.452;2022-07-10T10:57:20;22.17;78.55
13496;DHT22;6820;49.374;8.452;2022-07-10T11:09:36;23.04;76.04
13496;DHT22;6820;49.374;8.452;2022-07-10T11:13:38;22.97;76.51
13496;DHT22;6820;49.374;8.452;2022-07-10T11:17:40;23.04;76.51
13496;DHT22;6820;49.374;8.452;2022-07-10T11:21:45;23.07;76.81
13496;DHT22;6820;49.374;8.452;2022-07-10T11:25:49;23.03;76.91
13496;DHT22;6820;49.374;8.452;2022-07-10T11:30:02;23.00;76.81
13496;DHT22;6820;49.374;8.452;2022-07-10T11:34:04;23.34;75.81
13496;DHT22;6820;49.374;8.452;2022-07-10T11:38:06;23.47;77.17
13496;DHT22;6820;49.374;8.452;2022-07-10T11:42:07;23.60;75.44
13496;DHT22;6820;49.374;8.452;2022-07-10T11:46:09;23.45;75.74
13496;DHT22;6820;49.374;8.452;2022-07-10T11:50:12;23.84;76.24
13496;DHT22;6820;49.374;8.452;2022-07-10T11:54:15;23.77;75.70
13496;DHT22;6820;49.374;8.452;2022-07-10T11:58:19;23.67;75.40
13496;DHT22;6820;49.374;8.452;2022-07-10T12:02:22;23.78;76.00
13496;DHT22;6820;49.374;8.452;2022-07-10T12:06:25;24.63;74.60
13496;DHT22;6820;49.374;8.452;2022-07-10T12:10:28;24.26;74.37
13496;DHT22;6820;49.374;8.452;2022-07-10T12:14:30;24.09;75.63
13496;DHT22;6820;49.374;8.452;2022-07-10T12:18:32;24.61;74.07
13496;DHT22;6820;49.374;8.452;2022-07-10T12:22:35;24.84;73.86
13496;DHT22;6820;49.374;8.452;2022-07-10T12:26:39;24.98;73.73
13496;DHT22;6820;49.374;8.452;2022-07-10T12:30:44;24.71;74.33
13496;DHT22;6820;49.374;8.452;2022-07-10T12:34:45;24.48;75.06
13496;DHT22;6820;49.374;8.452;2022-07-10T12:38:53;24.42;75.49
13496;DHT22;6820;49.374;8.452;2022-07-10T12:43:03;24.21;75.49
13496;DHT22;6820;49.374;8.452;2022-07-10T12:47:07;24.16;76.03
13496;DHT22;6820;49.374;8.452;2022-07-10T12:55:22;24.79;74.46
13496;DHT22;6820;49.374;8.452;2022-07-10T12:59:26;25.05;74.76
13496;DHT22;6820;49.374;8.452;2022-07-10T13:03:29;25.17;74.23
13496;DHT22;6820;49.374;8.452;2022-07-10T13:07:32;25.01;74.39
13496;DHT22;6820;49.374;8.452;2022-07-10T13:11:37;24.64;74.82
13496;DHT22;6820;49.374;8.452;2022-07-10T13:15:39;24.49;75.36
13496;DHT22;6820;49.374;8.452;2022-07-10T13:19:41;24.41;75.10
13496;DHT22;6820;49.374;8.452;2022-07-10T13:23:43;24.11;76.59
13496;DHT22;6820;49.374;8.452;2022-07-10T13:27:45;24.33;76.72
13496;DHT22;6820;49.374;8.452;2022-07-10T13:31:47;24.33;75.73
13496;DHT22;6820;49.374;8.452;2022-07-10T13:35:49;24.56;75.73
13496;DHT22;6820;49.374;8.452;2022-07-10T13:39:51;24.64;76.39
13496;DHT22;6820;49.374;8.452;2022-07-10T13:43:53;24.53;75.76
13496;DHT22;6820;49.374;8.452;2022-07-10T13:47:55;24.46;76.49
13496;DHT22;6820;49.374;8.452;2022-07-10T13:51:57;24.27;75.89
13496;DHT22;6820;49.374;8.452;2022-07-10T13:55:59;24.06;77.02
13496;DHT22;6820;49.374;8.452;2022-07-10T14:00:00;24.19;77.76
13496;DHT22;6820;49.374;8.452;2022-07-10T14:04:11;24.55;76.92
13496;DHT22;6820;49.374;8.452;2022-07-10T14:08:13;24.67;76.68
13496;DHT22;6820;49.374;8.452;2022-07-10T14:12:15;24.70;76.15
13496;DHT22;6820;49.374;8.452;2022-07-10T14:16:17;24.64;76.15
13496;DHT22;6820;49.374;8.452;2022-07-10T14:20:19;24.63;75.65
13496;DHT22;6820;49.374;8.452;2022-07-10T14:24:21;24.53;77.05
13496;DHT22;6820;49.374;8.452;2022-07-10T14:28:22;24.49;77.19
13496;DHT22;6820;49.374;8.452;2022-07-10T14:32:24;24.49;77.48
13496;DHT22;6820;49.374;8.452;2022-07-10T14:36:26;24.41;76.68
13496;DHT22;6820;49.374;8.452;2022-07-10T14:40:28;24.15;76.79
13496;DHT22;6820;49.374;8.452;2022-07-10T14:44:30;24.24;77.22
13496;DHT22;6820;49.374;8.452;2022-07-10T14:48:33;24.14;77.32
13496;DHT22;6820;49.374;8.452;2022-07-10T14:52:37;23.87;78.22
13496;DHT22;6820;49.374;8.452;2022-07-10T14:56:39;23.67;78.35
13496;DHT22;6820;49.374;8.452;2022-07-10T15:00:41;23.44;78.99
13496;DHT22;6820;49.374;8.452;2022-07-10T15:04:43;23.42;79.13
13496;DHT22;6820;49.374;8.452;2022-07-10T15:08:44;23.21;79.93
13496;DHT22;6820;49.374;8.452;2022-07-10T15:12:46;23.16;80.26
13496;DHT22;6820;49.374;8.452;2022-07-10T15:16:48;23.19;80.56
13496;DHT22;6820;49.374;8.452;2022-07-10T15:20:49;23.12;80.56
13496;DHT22;6820;49.374;8.452;2022-07-10T15:24:51;23.11;80.80
13496;DHT22;6820;49.374;8.452;2022-07-10T15:28:53;23.23;80.50
13496;DHT22;6820;49.374;8.452;2022-07-10T15:32:56;23.59;80.76
13496;DHT22;6820;49.374;8.452;2022-07-10T15:36:58;23.89;79.63
13496;DHT22;6820;49.374;8.452;2022-07-10T15:41:00;23.82;79.15
13496;DHT22;6820;49.374;8.452;2022-07-10T15:45:02;23.67;79.79
13496;DHT22;6820;49.374;8.452;2022-07-10T15:49:03;23.64;79.39
13496;DHT22;6820;49.374;8.452;2022-07-10T15:53:06;23.57;79.39
13496;DHT22;6820;49.374;8.452;2022-07-10T15:57:08;23.42;79.82
13496;DHT22;6820;49.374;8.452;2022-07-10T16:01:14;23.34;80.12
13496;DHT22;6820;49.374;8.452;2022-07-10T16:05:17;23.34;80.66
13496;DHT22;6820;49.374;8.452;2022-07-10T16:09:19;23.29;80.66
13496;DHT22;6820;49.374;8.452;2022-07-10T16:13:21;23.34;80.96
13496;DHT22;6820;49.374;8.452;2022-07-10T16:17:22;23.44;81.26
13496;DHT22;6820;49.374;8.452;2022-07-10T16:21:24;23.29;81.52
13496;DHT22;6820;49.374;8.452;2022-07-10T16:25:26;23.23;81.96
13496;DHT22;6820;49.374;8.452;2022-07-10T16:29:47;23.21;82.45
13496;DHT22;6820;49.374;8.452;2022-07-10T16:33:48;23.09;82.56
13496;DHT22;6820;49.374;8.452;2022-07-10T16:37:50;23.14;82.79
13496;DHT22;6820;49.374;8.452;2022-07-10T16:41:52;23.16;82.79
13496;DHT22;6820;49.374;8.452;2022-07-10T16:45:54;23.25;82.75
13496;DHT22;6820;49.374;8.452;2022-07-10T16:49:56;23.42;82.95
13496;DHT22;6820;49.374;8.452;2022-07-10T16:53:59;23.68;82.21
13496;DHT22;6820;49.374;8.452;2022-07-10T16:58:19;23.86;81.48
13496;DHT22;6820;49.374;8.452;2022-07-10T17:02:21;23.94;81.68
13496;DHT22;6820;49.374;8.452;2022-07-10T17:06:22;23.94;81.74
13496;DHT22;6820;49.374;8.452;2022-07-10T17:10:24;23.82;82.04
13496;DHT22;6820;49.374;8.452;2022-07-10T17:14:26;23.77;82.18
13496;DHT22;6820;49.374;8.452;2022-07-10T17:18:27;23.93;82.48
13496;DHT22;6820;49.374;8.452;2022-07-10T17:22:29;23.89;82.24
13496;DHT22;6820;49.374;8.452;2022-07-10T17:26:31;23.92;82.64
13496;DHT22;6820;49.374;8.452;2022-07-10T17:30:33;23.86;83.03
13496;DHT22;6820;49.374;8.452;2022-07-10T17:34:35;23.64;83.27
13496;DHT22;6820;49.374;8.452;2022-07-10T17:38:37;23.54;83.47
13496;DHT22;6820;49.374;8.452;2022-07-10T17:42:38;23.34;83.71
13496;DHT22;6820;49.374;8.452;2022-07-10T17:46:42;23.18;84.45
13496;DHT22;6820;49.374;8.452;2022-07-10T17:50:44;23.11;84.84
13496;DHT22;6820;49.374;8.452;2022-07-10T17:54:46;22.94;84.89
13496;DHT22;6820;49.374;8.452;2022-07-10T17:58:48;22.91;85.28
13496;DHT22;6820;49.374;8.452;2022-07-10T18:02:50;22.88;85.33
13496;DHT22;6820;49.374;8.452;2022-07-10T18:06:52;22.93;86.22
13496;DHT22;6820;49.374;8.452;2022-07-10T18:10:53;22.97;86.08
13496;DHT22;6820;49.374;8.452;2022-07-10T18:14:55;22.88;86.29
13496;DHT22;6820;49.374;8.452;2022-07-10T18:18:57;22.76;86.63
13496;DHT22;6820;49.374;8.452;2022-07-10T18:22:58;22.72;87.02
13496;DHT22;6820;49.374;8.452;2022-07-10T18:27:00;22.63;87.32
13496;DHT22;6820;49.374;8.452;2022-07-10T18:31:03;22.51;87.57
13496;DHT22;6820;49.374;8.452;2022-07-10T18:35:05;22.45;88.06
13496;DHT22;6820;49.374;8.452;2022-07-10T18:39:07;22.35;88.60
13496;DHT22;6820;49.374;8.452;2022-07-10T18:43:18;22.26;88.71
13496;DHT22;6820;49.374;8.452;2022-07-10T18:47:19;22.23;89.11
13496;DHT22;6820;49.374;8.452;2022-07-10T18:51:21;22.08;89.61
13496;DHT22;6820;49.374;8.452;2022-07-10T18:55:23;21.90;90.45
13496;DHT22;6820;49.374;8.452;2022-07-10T18:59:25;21.77;90.69
13496;DHT22;6820;49.374;8.452;2022-07-10T19:03:26;21.67;91.09
13496;DHT22;6820;49.374;8.452;2022-07-10T19:07:28;21.56;91.33
13496;DHT22;6820;49.374;8.452;2022-07-10T19:11:30;21.40;91.53
13496;DHT22;6820;49.374;8.452;2022-07-10T19:15:31;21.28;92.08
13496;DHT22;6820;49.374;8.452;2022-07-10T19:19:35;21.22;92.38
13496;DHT22;6820;49.374;8.452;2022-07-10T19:23:36;21.18;92.72
13496;DHT22;6820;49.374;8.452;2022-07-10T19:27:38;21.09;93.12
13496;DHT22;6820;49.374;8.452;2022-07-10T19:31:40;21.03;93.62
13496;DHT22;6820;49.374;8.452;2022-07-10T19:35:42;21.00;93.67
13496;DHT22;6820;49.374;8.452;2022-07-10T19:39:44;20.97;94.37
13496;DHT22;6820;49.374;8.452;2022-07-10T19:43:45;20.96;94.47
13496;DHT22;6820;49.374;8.452;2022-07-10T19:47:47;21.00;94.57
13496;DHT22;6820;49.374;8.452;2022-07-10T19:51:49;20.98;94.87
13496;DHT22;6820;49.374;8.452;2022-07-10T19:55:50;20.96;95.07
13496;DHT22;6820;49.374;8.452;2022-07-10T19:59:52;20.94;95.17
13496;DHT22;6820;49.374;8.452;2022-07-10T20:03:56;20.93;95.57
13496;DHT22;6820;49.374;8.452;2022-07-10T20:07:57;20.90;95.87
13496;DHT22;6820;49.374;8.452;2022-07-10T20:11:59;20.81;96.08
13496;DHT22;6820;49.374;8.452;2022-07-10T20:16:01;20.73;96.47
13496;DHT22;6820;49.374;8.452;2022-07-10T20:20:08;20.61;97.12
13496;DHT22;6820;49.374;8.452;2022-07-10T20:24:10;20.50;97.62
13496;DHT22;6820;49.374;8.452;2022-07-10T20:28:11;20.38;98.27
13496;DHT22;6820;49.374;8.452;2022-07-10T20:32:13;20.27;98.77
13496;DHT22;6820;49.374;8.452;2022-07-10T20:36:16;20.23;99.22
13496;DHT22;6820;49.374;8.452;2022-07-10T20:40:36;20.17;99.62
13496;DHT22;6820;49.374;8.452;2022-07-10T20:44:37;20.13;99.99
13496;DHT22;6820;49.374;8.452;2022-07-10T20:48:39;20.08;99.99
13496;DHT22;6820;49.374;8.452;2022-07-10T20:52:41;20.08;99.99
13496;DHT22;6820;49.374;8.452;2022-07-10T20:56:43;20.08;99.99
13496;DHT22;6820;49.374;8.452;2022-07-10T21:00:45;20.08;99.99
13496;DHT22;6820;49.374;8.452;2022-07-10T21:04:47;20.05;99.99
13496;DHT22;6820;49.374;8.452;2022-07-10T21:08:50;20.07;99.99
13496;DHT22;6820;49.374;8.452;2022-07-10T21:12:51;20.12;99.99
13496;DHT22;6820;49.374;8.452;2022-07-10T21:16:53;20.16;99.99
13496;DHT22;6820;49.374;8.452;2022-07-10T21:20:55;20.19;99.99
13496;DHT22;6820;49.374;8.452;2022-07-10T21:24:56;20.26;99.99
13496;DHT22;6820;49.374;8.452;2022-07-10T21:28:58;20.27;99.99
13496;DHT22;6820;49.374;8.452;2022-07-10T21:33:01;20.34;99.99
13496;DHT22;6820;49.374;8.452;2022-07-10T21:37:03;20.33;99.99
13496;DHT22;6820;49.374;8.452;2022-07-10T21:41:05;20.33;99.99
13496;DHT22;6820;49.374;8.452;2022-07-10T21:45:07;20.33;99.99
13496;DHT22;6820;49.374;8.452;2022-07-10T21:49:09;20.31;99.99
13496;DHT22;6820;49.374;8.452;2022-07-10T21:53:11;20.30;99.99
13496;DHT22;6820;49.374;8.452;2022-07-10T21:57:12;20.30;99.99
13496;DHT22;6820;49.374;8.452;2022-07-10T22:01:14;20.33;99.99
13496;DHT22;6820;49.374;8.452;2022-07-10T22:05:16;20.35;99.99
13496;DHT22;6820;49.374;8.452;2022-07-10T22:09:17;20.33;99.99
13496;DHT22;6820;49.374;8.452;2022-07-10T22:13:19;20.33;99.99
13496;DHT22;6820;49.374;8.452;2022-07-10T22:17:20;20.30;99.99
13496;DHT22;6820;49.374;8.452;2022-07-10T22:21:22;20.33;99.99
13496;DHT22;6820;49.374;8.452;2022-07-10T22:25:24;20.31;99.99
13496;DHT22;6820;49.374;8.452;2022-07-10T22:29:29;20.34;99.99
13496;DHT22;6820;49.374;8.452;2022-07-10T22:33:30;20.33;99.99
13496;DHT22;6820;49.374;8.452;2022-07-10T22:37:32;20.31;99.99
13496;DHT22;6820;49.374;8.452;2022-07-10T22:41:34;20.27;99.99
13496;DHT22;6820;49.374;8.452;2022-07-10T22:45:35;20.26;99.99
13496;DHT22;6820;49.374;8.452;2022-07-10T22:49:37;20.25;99.99
13496;DHT22;6820;49.374;8.452;2022-07-10T22:53:38;20.26;99.99
13496;DHT22;6820;49.374;8.452;2022-07-10T22:57:41;20.23;99.99
13496;DHT22;6820;49.374;8.452;2022-07-10T23:01:43;20.22;99.99
13496;DHT22;6820;49.374;8.452;2022-07-10T23:05:49;20.20;99.99
13496;DHT22;6820;49.374;8.452;2022-07-10T23:09:51;20.22;99.99
13496;DHT22;6820;49.374;8.452;2022-07-10T23:13:53;20.20;99.99
13496;DHT22;6820;49.374;8.452;2022-07-10T23:17:54;20.17;99.99
13496;DHT22;6820;49.374;8.452;2022-07-10T23:21:56;20.15;99.99
13496;DHT22;6820;49.374;8.452;2022-07-10T23:25:58;20.12;99.99
13496;DHT22;6820;49.374;8.452;2022-07-10T23:29:59;20.15;99.99
13496;DHT22;6820;49.374;8.452;2022-07-10T23:34:01;20.12;99.99
13496;DHT22;6820;49.374;8.452;2022-07-10T23:38:03;20.13;99.99
13496;DHT22;6820;49.374;8.452;2022-07-10T23:42:04;20.15;99.99
13496;DHT22;6820;49.374;8.452;2022-07-10T23:46:06;20.15;99.99
13496;DHT22;6820;49.374;8.452;2022-07-10T23:50:08;20.12;99.99
13496;DHT22;6820;49.374;8.452;2022-07-10T23:54:11;20.08;99.99
13496;DHT22;6820;49.374;8.452;2022-07-10T23:58:13;20.08;99.99
